Time,TemperatureF,DewpointF,PressureIn,WindDirection,WindDirectionDegrees,WindSpeedMPH,WindSpeedGustMPH,Humidity,HourlyPrecipIn,Conditions,Clouds,dailyrainin,SoftwareType,DateUTC
2013-01-15 00:01:00,27.2,25.5,30.59,NNE,13,0.0,0.0,93,0.00,,---,0.00,VWS V13.00,2013-01-15 08:01:00,
2013-01-15 00:06:00,27.2,25.5,30.59,NNE,13,0.0,0.0,93,0.00,,---,0.00,VWS V13.00,2013-01-15 08:06:00,
2013-01-15 00:11:00,27.2,25.5,30.59,NNE,13,0.0,0.0,93,0.00,,---,0.00,VWS V13.00,2013-01-15 08:11:00,
2013-01-15 00:16:00,27.2,25.5,30.59,NNE,13,0.0,0.0,93,0.00,,---,0.00,VWS V13.00,2013-01-15 08:16:00,
2013-01-15 00:21:00,27.2,25.5,30.59,NNE,13,0.0,0.0,93,0.00,,---,0.00,VWS V13.00,2013-01-15 08:21:00,
2013-01-15 00:26:00,27.0,25.2,30.59,NNE,13,0.0,0.0,93,0.00,,---,0.00,VWS V13.00,2013-01-15 08:26:00,
2013-01-15 00:30:00,27.0,25.2,30.59,NNE,13,0.0,0.0,93,0.00,,---,0.00,VWS V13.00,2013-01-15 08:30:00,
2013-01-15 00:35:00,27.0,25.2,30.59,NNE,13,0.0,0.0,93,0.00,,---,0.00,VWS V13.00,2013-01-15 08:35:00,
2013-01-15 00:40:00,26.9,25.1,30.59,NNE,13,0.0,0.0,93,0.00,,---,0.00,VWS V13.00,2013-01-15 08:40:00,
2013-01-15 00:45:00,26.9,25.1,30.59,NNE,13,0.0,0.0,93,0.00,,---,0.00,VWS V13.00,2013-01-15 08:45:00,
2013-01-15 00:50:00,26.9,25.1,30.60,NNE,13,0.0,0.0,93,0.00,,---,0.00,VWS V13.00,2013-01-15 08:50:00,
2013-01-15 00:55:00,26.9,25.1,30.60,NNE,13,0.0,0.0,93,0.00,,---,0.00,VWS V13.00,2013-01-15 08:55:00,
2013-01-15 01:00:00,26.7,25.0,30.60,NNE,13,0.0,0.0,93,0.00,,---,0.00,VWS V13.00,2013-01-15 09:00:00,
2013-01-15 01:05:00,26.7,25.0,30.61,NNE,13,0.0,0.0,93,0.00,,---,0.00,VWS V13.00,2013-01-15 09:05:00,
2013-01-15 01:10:00,26.7,25.0,30.61,NNE,13,0.0,0.0,93,0.00,,---,0.00,VWS V13.00,2013-01-15 09:10:00,
2013-01-15 01:15:00,26.7,25.0,30.61,NNE,13,0.0,0.0,93,0.00,,---,0.00,VWS V13.00,2013-01-15 09:15:00,
2013-01-15 01:20:00,26.7,25.0,30.61,NNE,13,0.0,0.0,93,0.00,,---,0.00,VWS V13.00,2013-01-15 09:20:00,
2013-01-15 01:25:00,26.7,25.0,30.61,NNE,13,0.0,0.0,93,0.00,,---,0.00,VWS V13.00,2013-01-15 09:25:00,
2013-01-15 01:30:00,26.7,25.2,30.61,NNE,13,0.0,0.0,94,0.00,,---,0.00,VWS V13.00,2013-01-15 09:30:00,
2013-01-15 01:35:00,26.9,25.4,30.61,NNE,13,0.0,0.0,94,0.00,,---,0.00,VWS V13.00,2013-01-15 09:35:00,
2013-01-15 01:40:00,26.9,25.4,30.61,NNE,13,0.0,0.0,94,0.00,,---,0.00,VWS V13.00,2013-01-15 09:40:00,
2013-01-15 01:45:00,27.0,25.5,30.61,NNE,13,0.0,0.0,94,0.00,,---,0.00,VWS V13.00,2013-01-15 09:45:00,
2013-01-15 01:50:00,27.2,25.7,30.62,NNE,13,0.0,0.0,94,0.00,,---,0.00,VWS V13.00,2013-01-15 09:50:00,
2013-01-15 01:55:00,27.3,25.8,30.62,NNE,13,0.0,0.0,94,0.00,,---,0.00,VWS V13.00,2013-01-15 09:55:00,
2013-01-15 02:00:00,27.5,26.0,30.62,NNE,13,0.0,0.0,94,0.00,,---,0.00,VWS V13.00,2013-01-15 10:00:00,
2013-01-15 02:05:00,27.5,26.0,30.62,NNE,13,0.0,0.0,94,0.00,,---,0.00,VWS V13.00,2013-01-15 10:05:00,
2013-01-15 02:10:00,27.6,26.1,30.62,NNE,13,0.0,0.0,94,0.00,,---,0.00,VWS V13.00,2013-01-15 10:10:00,
2013-01-15 02:15:00,27.8,26.3,30.62,NNE,13,0.0,0.0,94,0.00,,---,0.00,VWS V13.00,2013-01-15 10:15:00,
2013-01-15 02:20:00,27.9,26.4,30.63,NNE,13,0.0,0.0,94,0.00,,---,0.00,VWS V13.00,2013-01-15 10:20:00,
2013-01-15 02:25:00,27.9,26.4,30.63,NNE,13,0.0,0.0,94,0.00,,---,0.00,VWS V13.00,2013-01-15 10:25:00,
2013-01-15 02:30:00,28.1,26.6,30.63,NNE,13,0.0,0.0,94,0.00,,---,0.00,VWS V13.00,2013-01-15 10:30:00,
2013-01-15 02:35:00,28.2,26.7,30.64,NNE,13,0.0,0.0,94,0.00,,---,0.00,VWS V13.00,2013-01-15 10:35:00,
2013-01-15 02:40:00,28.2,26.7,30.64,NNE,13,0.0,0.0,94,0.00,,---,0.00,VWS V13.00,2013-01-15 10:40:00,
2013-01-15 02:45:00,28.2,26.7,30.64,NNE,13,0.0,0.0,94,0.00,,---,0.00,VWS V13.00,2013-01-15 10:45:00,
2013-01-15 02:50:00,28.2,26.7,30.64,NNE,13,0.0,0.0,94,0.00,,---,0.00,VWS V13.00,2013-01-15 10:50:00,
2013-01-15 02:55:00,28.2,26.7,30.64,NNE,13,0.0,0.0,94,0.00,,---,0.00,VWS V13.00,2013-01-15 10:55:00,
2013-01-15 03:00:00,28.2,26.7,30.64,NNE,13,0.0,0.0,94,0.00,,---,0.00,VWS V13.00,2013-01-15 11:00:00,
2013-01-15 03:05:00,28.2,26.7,30.64,NNE,13,0.0,0.0,94,0.00,,---,0.00,VWS V13.00,2013-01-15 11:05:00,
2013-01-15 03:10:00,28.2,26.7,30.64,NNE,13,0.0,0.0,94,0.00,,---,0.00,VWS V13.00,2013-01-15 11:10:00,
2013-01-15 03:15:00,28.1,26.6,30.64,NNE,13,0.0,0.0,94,0.00,,---,0.00,VWS V13.00,2013-01-15 11:15:00,
2013-01-15 03:20:00,28.1,26.6,30.64,NNE,13,0.0,0.0,94,0.00,,---,0.00,VWS V13.00,2013-01-15 11:20:00,
2013-01-15 03:25:00,27.9,26.4,30.64,NNE,13,0.0,0.0,94,0.00,,---,0.00,VWS V13.00,2013-01-15 11:25:00,
2013-01-15 03:30:00,27.9,26.4,30.64,NNE,13,0.0,0.0,94,0.00,,---,0.00,VWS V13.00,2013-01-15 11:30:00,
2013-01-15 03:35:00,27.9,26.4,30.64,NNE,13,0.0,0.0,94,0.00,,---,0.00,VWS V13.00,2013-01-15 11:35:00,
2013-01-15 03:40:00,27.8,26.3,30.64,NNE,13,0.0,0.0,94,0.00,,---,0.00,VWS V13.00,2013-01-15 11:40:00,
2013-01-15 03:45:00,27.6,26.1,30.64,NNE,13,0.0,0.0,94,0.00,,---,0.00,VWS V13.00,2013-01-15 11:45:00,
2013-01-15 03:50:00,27.6,26.1,30.64,NNE,13,0.0,0.0,94,0.00,,---,0.00,VWS V13.00,2013-01-15 11:50:00,
2013-01-15 03:55:00,27.6,26.1,30.64,NNE,13,0.0,0.0,94,0.00,,---,0.00,VWS V13.00,2013-01-15 11:55:00,
2013-01-15 04:00:00,27.5,26.0,30.64,NNE,13,0.0,0.0,94,0.00,,---,0.00,VWS V13.00,2013-01-15 12:00:00,
2013-01-15 04:05:00,27.5,26.0,30.65,North,10,0.0,0.0,94,0.00,,---,0.00,VWS V13.00,2013-01-15 12:05:00,
2013-01-15 04:10:00,27.3,25.8,30.65,NNE,13,0.0,0.0,94,0.00,,---,0.00,VWS V13.00,2013-01-15 12:10:00,
2013-01-15 04:15:00,27.3,25.8,30.65,NNE,13,0.0,0.0,94,0.00,,---,0.00,VWS V13.00,2013-01-15 12:15:00,
2013-01-15 04:20:00,27.2,25.7,30.65,NNE,13,0.0,0.0,94,0.00,,---,0.00,VWS V13.00,2013-01-15 12:20:00,
2013-01-15 04:25:00,27.2,25.7,30.65,NNE,13,0.0,0.0,94,0.00,,---,0.00,VWS V13.00,2013-01-15 12:25:00,
2013-01-15 04:30:00,27.0,25.5,30.65,NNE,13,0.0,0.0,94,0.00,,---,0.00,VWS V13.00,2013-01-15 12:30:00,
2013-01-15 04:35:00,27.0,25.5,30.65,NNE,13,0.0,0.0,94,0.00,,---,0.00,VWS V13.00,2013-01-15 12:35:00,
2013-01-15 04:40:00,27.0,25.5,30.65,NNE,13,0.0,0.0,94,0.00,,---,0.00,VWS V13.00,2013-01-15 12:40:00,
2013-01-15 04:45:00,26.9,25.4,30.65,NNE,13,0.0,0.0,94,0.00,,---,0.00,VWS V13.00,2013-01-15 12:45:00,
2013-01-15 04:50:00,26.9,25.4,30.65,NNE,13,0.0,0.0,94,0.00,,---,0.00,VWS V13.00,2013-01-15 12:50:00,
2013-01-15 04:55:00,26.7,25.2,30.64,NNE,13,0.0,0.0,94,0.00,,---,0.00,VWS V13.00,2013-01-15 12:55:00,
2013-01-15 05:00:00,26.7,25.2,30.64,NNE,13,0.0,0.0,94,0.00,,---,0.00,VWS V13.00,2013-01-15 13:00:00,
2013-01-15 05:05:00,26.6,25.1,30.64,NNE,13,0.0,0.0,94,0.00,,---,0.00,VWS V13.00,2013-01-15 13:05:00,
2013-01-15 05:10:00,26.6,25.1,30.65,NNE,13,0.0,0.0,94,0.00,,---,0.00,VWS V13.00,2013-01-15 13:10:00,
2013-01-15 05:15:00,26.6,25.1,30.65,NNE,13,0.0,0.0,94,0.00,,---,0.00,VWS V13.00,2013-01-15 13:15:00,
2013-01-15 05:20:00,26.7,25.2,30.65,NNE,13,0.0,0.0,94,0.00,,---,0.00,VWS V13.00,2013-01-15 13:20:00,
2013-01-15 05:25:00,26.7,25.2,30.65,NNE,13,0.0,0.0,94,0.00,,---,0.00,VWS V13.00,2013-01-15 13:25:00,
2013-01-15 05:30:00,26.7,25.2,30.65,NNE,13,0.0,0.0,94,0.00,,---,0.00,VWS V13.00,2013-01-15 13:30:00,
2013-01-15 05:35:00,26.9,25.4,30.65,NNE,13,0.0,0.0,94,0.00,,---,0.00,VWS V13.00,2013-01-15 13:35:00,
2013-01-15 05:40:00,27.0,25.5,30.65,NNE,13,0.0,0.0,94,0.00,,---,0.00,VWS V13.00,2013-01-15 13:40:00,
2013-01-15 05:45:00,27.2,26.0,30.65,NNE,13,0.0,0.0,95,0.00,,---,0.00,VWS V13.00,2013-01-15 13:45:00,
2013-01-15 05:50:00,27.2,26.0,30.65,NNE,13,0.0,0.0,95,0.00,,---,0.00,VWS V13.00,2013-01-15 13:50:00,
2013-01-15 05:55:00,27.3,26.1,30.65,NNE,13,0.0,0.0,95,0.00,,---,0.00,VWS V13.00,2013-01-15 13:55:00,
2013-01-15 06:00:00,27.3,25.8,30.65,NNE,13,0.0,0.0,94,0.00,,---,0.00,VWS V13.00,2013-01-15 14:00:00,
2013-01-15 06:05:00,27.3,25.8,30.65,NNE,13,0.0,0.0,94,0.00,,---,0.00,VWS V13.00,2013-01-15 14:05:00,
2013-01-15 06:10:00,27.3,25.8,30.66,NNE,13,0.0,0.0,94,0.00,,---,0.00,VWS V13.00,2013-01-15 14:10:00,
2013-01-15 06:15:00,27.5,26.3,30.66,NNE,13,0.0,0.0,95,0.00,,---,0.00,VWS V13.00,2013-01-15 14:15:00,
2013-01-15 06:20:00,27.5,26.3,30.66,NNE,13,0.0,0.0,95,0.00,,---,0.00,VWS V13.00,2013-01-15 14:20:00,
2013-01-15 06:25:00,27.5,26.3,30.66,NNE,13,0.0,0.0,95,0.00,,---,0.00,VWS V13.00,2013-01-15 14:25:00,
2013-01-15 06:30:00,27.5,26.3,30.66,NNE,13,0.0,0.0,95,0.00,,---,0.00,VWS V13.00,2013-01-15 14:30:00,
2013-01-15 06:35:00,27.6,26.4,30.66,NNE,13,0.0,0.0,95,0.00,,---,0.00,VWS V13.00,2013-01-15 14:35:00,
2013-01-15 06:40:00,27.6,26.4,30.67,NNE,13,0.0,0.0,95,0.00,,---,0.00,VWS V13.00,2013-01-15 14:40:00,
2013-01-15 06:45:00,27.6,26.4,30.67,NNE,13,0.0,0.0,95,0.00,,---,0.00,VWS V13.00,2013-01-15 14:45:00,
2013-01-15 06:50:00,27.6,26.4,30.67,NNE,13,0.0,0.0,95,0.00,,---,0.00,VWS V13.00,2013-01-15 14:50:00,
2013-01-15 06:55:00,27.8,26.6,30.67,NNE,13,0.0,0.0,95,0.00,,---,0.00,VWS V13.00,2013-01-15 14:55:00,
2013-01-15 07:00:00,27.8,26.6,30.67,NNE,13,0.0,0.0,95,0.00,,---,0.00,VWS V13.00,2013-01-15 15:00:00,
2013-01-15 07:05:00,27.9,26.7,30.67,NNE,13,0.0,0.0,95,0.00,,---,0.00,VWS V13.00,2013-01-15 15:05:00,
2013-01-15 07:10:00,27.9,26.7,30.67,NNE,13,0.0,0.0,95,0.00,,---,0.00,VWS V13.00,2013-01-15 15:10:00,
2013-01-15 07:15:00,27.9,26.7,30.67,NNE,13,0.0,0.0,95,0.00,,---,0.00,VWS V13.00,2013-01-15 15:15:00,
2013-01-15 07:20:00,27.9,26.7,30.67,NNE,13,0.0,0.0,95,0.00,,---,0.00,VWS V13.00,2013-01-15 15:20:00,
2013-01-15 07:25:00,27.8,26.6,30.68,NNE,13,0.0,0.0,95,0.00,,---,0.00,VWS V13.00,2013-01-15 15:25:00,
2013-01-15 07:30:00,27.8,26.6,30.68,NNE,13,0.0,0.0,95,0.00,,---,0.00,VWS V13.00,2013-01-15 15:30:00,
2013-01-15 07:35:00,27.6,26.4,30.68,NNE,13,0.0,0.0,95,0.00,,---,0.00,VWS V13.00,2013-01-15 15:35:00,
2013-01-15 07:40:00,27.6,26.4,30.68,NNE,13,0.0,0.0,95,0.00,,---,0.00,VWS V13.00,2013-01-15 15:40:00,
2013-01-15 07:45:00,27.5,26.3,30.68,NNE,13,0.0,0.0,95,0.00,,---,0.00,VWS V13.00,2013-01-15 15:45:00,
2013-01-15 07:50:00,27.5,26.3,30.68,NNE,13,0.0,0.0,95,0.00,,---,0.00,VWS V13.00,2013-01-15 15:50:00,
2013-01-15 07:55:00,27.3,26.1,30.69,NNE,13,0.0,0.0,95,0.00,,---,0.00,VWS V13.00,2013-01-15 15:55:00,
2013-01-15 08:00:00,27.3,26.1,30.69,NNE,13,0.0,0.0,95,0.00,,---,0.00,VWS V13.00,2013-01-15 16:00:00,
2013-01-15 08:05:00,27.3,26.1,30.69,NNE,13,0.0,0.0,95,0.00,,---,0.00,VWS V13.00,2013-01-15 16:05:00,
2013-01-15 08:10:00,27.2,26.0,30.69,NNE,13,0.0,0.0,95,0.00,,---,0.00,VWS V13.00,2013-01-15 16:10:00,
2013-01-15 08:15:00,27.2,26.0,30.69,NNE,13,0.0,0.0,95,0.00,,---,0.00,VWS V13.00,2013-01-15 16:15:00,
2013-01-15 08:20:00,27.0,25.8,30.69,North,10,0.0,0.0,95,0.00,,---,0.00,VWS V13.00,2013-01-15 16:20:00,
2013-01-15 08:25:00,27.0,25.8,30.70,NNE,13,0.0,0.0,95,0.00,,---,0.00,VWS V13.00,2013-01-15 16:25:00,
2013-01-15 08:30:00,27.0,25.8,30.70,NNE,13,0.0,0.0,95,0.00,,---,0.00,VWS V13.00,2013-01-15 16:30:00,
2013-01-15 08:35:00,26.9,25.7,30.70,NNE,13,0.0,0.0,95,0.00,,---,0.00,VWS V13.00,2013-01-15 16:35:00,
2013-01-15 08:40:00,26.9,25.7,30.71,NNE,13,0.0,0.0,95,0.00,,---,0.00,VWS V13.00,2013-01-15 16:40:00,
2013-01-15 08:45:00,26.9,25.7,30.71,NNE,13,0.0,0.0,95,0.00,,---,0.00,VWS V13.00,2013-01-15 16:45:00,
2013-01-15 08:50:00,26.9,25.7,30.71,NNE,13,0.0,0.0,95,0.00,,---,0.00,VWS V13.00,2013-01-15 16:50:00,
2013-01-15 08:55:00,26.9,25.7,30.71,NNE,13,0.0,0.0,95,0.00,,---,0.00,VWS V13.00,2013-01-15 16:55:00,
2013-01-15 09:00:00,26.9,25.7,30.71,NNE,13,0.0,0.0,95,0.00,,---,0.00,VWS V13.00,2013-01-15 17:00:00,
2013-01-15 09:05:00,26.9,25.7,30.71,NNE,13,0.0,0.0,95,0.00,,---,0.00,VWS V13.00,2013-01-15 17:05:00,
2013-01-15 09:10:00,26.9,25.7,30.72,NNE,13,0.0,0.0,95,0.00,,---,0.00,VWS V13.00,2013-01-15 17:10:00,
2013-01-15 09:15:00,26.9,25.7,30.72,NNE,13,0.0,0.0,95,0.00,,---,0.00,VWS V13.00,2013-01-15 17:15:00,
2013-01-15 09:20:00,26.9,25.7,30.72,NNE,13,0.0,0.0,95,0.00,,---,0.00,VWS V13.00,2013-01-15 17:20:00,
2013-01-15 09:25:00,27.0,25.8,30.72,NNE,13,0.0,0.0,95,0.00,,---,0.00,VWS V13.00,2013-01-15 17:25:00,
2013-01-15 09:30:00,27.0,25.8,30.72,NNE,13,0.0,0.0,95,0.00,,---,0.00,VWS V13.00,2013-01-15 17:30:00,
2013-01-15 09:35:00,27.0,25.8,30.72,NNE,13,0.0,0.0,95,0.00,,---,0.00,VWS V13.00,2013-01-15 17:35:00,
2013-01-15 09:40:00,27.2,26.0,30.72,NNE,13,0.0,0.0,95,0.00,,---,0.00,VWS V13.00,2013-01-15 17:40:00,
2013-01-15 09:45:00,27.2,26.0,30.72,NNE,13,0.0,0.0,95,0.00,,---,0.00,VWS V13.00,2013-01-15 17:45:00,
2013-01-15 09:50:00,27.5,26.3,30.72,NNE,13,0.0,0.0,95,0.00,,---,0.00,VWS V13.00,2013-01-15 17:50:00,
2013-01-15 09:55:00,27.6,26.4,30.72,NNE,13,0.0,0.0,95,0.00,,---,0.00,VWS V13.00,2013-01-15 17:55:00,
2013-01-15 10:00:00,27.6,26.4,30.72,NNE,13,0.0,0.0,95,0.00,,---,0.00,VWS V13.00,2013-01-15 18:00:00,
2013-01-15 10:05:00,27.8,26.6,30.72,NNE,13,0.0,0.0,95,0.00,,---,0.00,VWS V13.00,2013-01-15 18:05:00,
2013-01-15 10:10:00,27.9,26.7,30.72,NNE,13,0.0,0.0,95,0.00,,---,0.00,VWS V13.00,2013-01-15 18:10:00,
2013-01-15 10:15:00,28.1,26.9,30.72,NNE,13,0.0,0.0,95,0.00,,---,0.00,VWS V13.00,2013-01-15 18:15:00,
2013-01-15 10:20:00,28.2,27.0,30.72,NNE,13,0.0,0.0,95,0.00,,---,0.00,VWS V13.00,2013-01-15 18:20:00,
2013-01-15 10:25:00,28.4,27.1,30.72,NNE,13,0.0,0.0,95,0.00,,---,0.00,VWS V13.00,2013-01-15 18:25:00,
2013-01-15 10:30:00,28.7,27.5,30.72,NNE,13,0.0,0.0,95,0.00,,---,0.00,VWS V13.00,2013-01-15 18:30:00,
2013-01-15 10:35:00,28.8,27.5,30.72,NNE,13,0.0,0.0,95,0.00,,---,0.00,VWS V13.00,2013-01-15 18:35:00,
2013-01-15 10:40:00,29.1,27.9,30.72,NNE,13,0.0,0.0,95,0.00,,---,0.00,VWS V13.00,2013-01-15 18:40:00,
2013-01-15 10:45:00,29.3,28.3,30.72,NNE,13,0.0,0.0,96,0.00,,---,0.00,VWS V13.00,2013-01-15 18:45:00,
2013-01-15 10:50:00,29.8,28.8,30.72,NNE,13,0.0,0.0,96,0.00,,---,0.00,VWS V13.00,2013-01-15 18:50:00,
2013-01-15 10:55:00,30.1,29.1,30.71,NNE,13,0.0,0.0,96,0.00,,---,0.00,VWS V13.00,2013-01-15 18:55:00,
2013-01-15 11:00:00,31.5,30.5,30.71,NNE,13,0.0,0.0,96,0.00,,---,0.00,VWS V13.00,2013-01-15 19:00:00,
2013-01-15 11:05:00,31.8,30.8,30.71,NNE,13,0.0,0.0,96,0.00,,---,0.00,VWS V13.00,2013-01-15 19:05:00,
2013-01-15 11:10:00,32.4,31.1,30.72,NNE,13,0.0,0.0,95,0.00,,---,0.00,VWS V13.00,2013-01-15 19:10:00,
2013-01-15 11:15:00,32.7,31.4,30.72,NNE,13,0.0,0.0,95,0.00,,---,0.00,VWS V13.00,2013-01-15 19:15:00,
2013-01-15 11:20:00,32.7,30.9,30.72,NNE,13,0.0,0.0,93,0.00,,---,0.00,VWS V13.00,2013-01-15 19:20:00,
2013-01-15 11:25:00,33.1,31.3,30.72,NNE,13,0.0,0.0,93,0.01,,---,0.01,VWS V13.00,2013-01-15 19:25:00,
2013-01-15 11:30:00,33.5,31.4,30.72,NNE,13,0.0,0.0,92,0.01,,---,0.01,VWS V13.00,2013-01-15 19:30:00,
2013-01-15 11:35:00,33.7,31.4,30.72,NNE,13,0.0,0.0,91,0.01,,---,0.01,VWS V13.00,2013-01-15 19:35:00,
2013-01-15 11:40:00,33.8,31.2,30.71,NNE,13,0.0,0.0,90,0.01,,---,0.01,VWS V13.00,2013-01-15 19:40:00,
2013-01-15 11:45:00,33.7,30.8,30.71,NNE,13,0.0,0.0,89,0.01,,---,0.01,VWS V13.00,2013-01-15 19:45:00,
2013-01-15 11:50:00,34.4,31.5,30.71,NNE,13,0.0,0.0,89,0.01,,---,0.01,VWS V13.00,2013-01-15 19:50:00,
2013-01-15 11:55:00,35.3,32.4,30.72,ENE,64,0.0,1.0,89,0.01,,---,0.01,VWS V13.00,2013-01-15 19:55:00,
2013-01-15 12:00:00,35.0,31.0,30.72,ENE,64,0.0,1.0,85,0.01,,---,0.01,VWS V13.00,2013-01-15 20:00:00,
2013-01-15 12:05:00,35.6,31.5,30.72,ENE,64,0.0,1.0,85,0.01,,---,0.01,VWS V13.00,2013-01-15 20:05:00,
2013-01-15 12:10:00,35.6,31.5,30.71,ENE,64,0.0,0.0,85,0.01,,---,0.01,VWS V13.00,2013-01-15 20:10:00,
2013-01-15 12:15:00,35.6,31.5,30.71,ENE,64,0.0,0.0,85,0.01,,---,0.01,VWS V13.00,2013-01-15 20:15:00,
2013-01-15 12:20:00,35.6,31.5,30.71,ENE,64,0.0,0.0,85,0.01,,---,0.01,VWS V13.00,2013-01-15 20:20:00,
2013-01-15 12:25:00,35.6,31.5,30.70,ENE,64,0.0,0.0,85,0.01,,---,0.01,VWS V13.00,2013-01-15 20:25:00,
2013-01-15 12:30:00,35.6,31.5,30.70,ENE,64,0.0,0.0,85,0.01,,---,0.01,VWS V13.00,2013-01-15 20:30:00,
2013-01-15 12:35:00,35.6,30.0,30.70,ENE,64,0.0,0.0,80,0.01,,---,0.01,VWS V13.00,2013-01-15 20:35:00,
2013-01-15 12:40:00,38.9,33.3,30.70,ENE,64,0.0,0.0,80,0.00,,---,0.01,VWS V13.00,2013-01-15 20:40:00,
2013-01-15 12:45:00,38.9,33.3,30.70,ENE,64,0.0,0.0,80,0.00,,---,0.01,VWS V13.00,2013-01-15 20:45:00,
2013-01-15 12:50:00,38.9,32.6,30.70,ENE,64,0.0,0.0,78,0.00,,---,0.01,VWS V13.00,2013-01-15 20:50:00,
2013-01-15 12:55:00,38.6,32.3,30.70,ENE,64,0.0,0.0,78,0.00,,---,0.01,VWS V13.00,2013-01-15 20:55:00,
2013-01-15 13:00:00,38.8,32.5,30.70,ENE,64,0.0,0.0,78,0.00,,---,0.01,VWS V13.00,2013-01-15 21:00:00,
2013-01-15 13:04:00,38.8,32.5,30.70,ENE,64,0.0,0.0,78,0.00,,---,0.01,VWS V13.00,2013-01-15 21:04:00,
2013-01-15 13:10:00,38.8,32.5,30.70,ENE,64,0.0,0.0,78,0.00,,---,0.01,VWS V13.00,2013-01-15 21:10:00,
2013-01-15 13:15:00,38.8,32.5,30.70,ENE,64,0.0,0.0,78,0.00,,---,0.01,VWS V13.00,2013-01-15 21:15:00,
2013-01-15 13:19:00,38.0,31.8,30.70,ENE,64,0.0,0.0,78,0.00,,---,0.01,VWS V13.00,2013-01-15 21:19:00,
2013-01-15 13:24:00,38.9,32.6,30.70,ENE,64,0.0,0.0,78,0.00,,---,0.01,VWS V13.00,2013-01-15 21:24:00,
2013-01-15 13:30:00,39.2,33.6,30.70,ENE,64,0.0,0.0,80,0.00,,---,0.01,VWS V13.00,2013-01-15 21:30:00,
2013-01-15 13:34:00,39.2,33.6,30.70,ENE,64,0.0,0.0,80,0.00,,---,0.01,VWS V13.00,2013-01-15 21:34:00,
2013-01-15 13:39:00,39.2,33.6,30.69,ENE,64,0.0,0.0,80,0.00,,---,0.01,VWS V13.00,2013-01-15 21:39:00,
2013-01-15 13:44:00,39.2,33.6,30.69,ENE,64,0.0,0.0,80,0.00,,---,0.01,VWS V13.00,2013-01-15 21:44:00,
2013-01-15 13:49:00,39.2,33.6,30.69,ENE,64,0.0,0.0,80,0.00,,---,0.01,VWS V13.00,2013-01-15 21:49:00,
2013-01-15 13:54:00,39.2,33.6,30.70,ENE,64,0.0,0.0,80,0.00,,---,0.01,VWS V13.00,2013-01-15 21:54:00,
2013-01-15 13:59:00,39.2,33.6,30.70,ENE,64,0.0,0.0,80,0.00,,---,0.01,VWS V13.00,2013-01-15 21:59:00,
2013-01-15 14:04:00,39.5,33.2,30.70,ENE,64,0.0,0.0,78,0.00,,---,0.01,VWS V13.00,2013-01-15 22:04:00,
2013-01-15 14:09:00,39.2,32.9,30.70,ENE,64,0.0,0.0,78,0.00,,---,0.01,VWS V13.00,2013-01-15 22:09:00,
2013-01-15 14:14:00,38.3,33.0,30.70,ENE,64,0.0,0.0,81,0.00,,---,0.01,VWS V13.00,2013-01-15 22:14:00,
2013-01-15 14:19:00,38.2,33.8,30.70,ENE,64,0.0,0.0,84,0.00,,---,0.01,VWS V13.00,2013-01-15 22:19:00,
2013-01-15 14:24:00,38.2,34.1,30.70,ENE,64,0.0,0.0,85,0.00,,---,0.01,VWS V13.00,2013-01-15 22:24:00,
2013-01-15 14:29:00,38.2,33.8,30.70,ENE,64,0.0,0.0,84,0.00,,---,0.01,VWS V13.00,2013-01-15 22:29:00,
2013-01-15 14:34:00,37.6,33.5,30.70,ENE,64,0.0,0.0,85,0.00,,---,0.01,VWS V13.00,2013-01-15 22:34:00,
2013-01-15 14:39:00,37.8,33.4,30.70,ENE,64,0.0,0.0,84,0.00,,---,0.01,VWS V13.00,2013-01-15 22:39:00,
2013-01-15 14:44:00,38.0,33.9,30.70,ENE,64,0.0,0.0,85,0.00,,---,0.01,VWS V13.00,2013-01-15 22:44:00,
2013-01-15 14:49:00,37.6,33.2,30.70,ENE,64,0.0,0.0,84,0.00,,---,0.01,VWS V13.00,2013-01-15 22:49:00,
2013-01-15 14:54:00,37.6,33.5,30.70,ENE,64,0.0,0.0,85,0.00,,---,0.01,VWS V13.00,2013-01-15 22:54:00,
2013-01-15 14:59:00,37.8,33.4,30.70,ENE,64,0.0,0.0,84,0.00,,---,0.01,VWS V13.00,2013-01-15 22:59:00,
2013-01-15 15:04:00,37.9,33.5,30.70,ENE,64,0.0,0.0,84,0.00,,---,0.01,VWS V13.00,2013-01-15 23:04:00,
2013-01-15 15:09:00,37.9,33.5,30.71,ENE,64,0.0,0.0,84,0.00,,---,0.01,VWS V13.00,2013-01-15 23:09:00,
2013-01-15 15:14:00,37.9,33.5,30.71,ENE,64,0.0,0.0,84,0.00,,---,0.01,VWS V13.00,2013-01-15 23:14:00,
2013-01-15 15:19:00,37.8,33.4,30.71,ENE,64,0.0,0.0,84,0.00,,---,0.01,VWS V13.00,2013-01-15 23:19:00,
2013-01-15 15:24:00,37.6,33.2,30.71,ENE,64,0.0,0.0,84,0.00,,---,0.01,VWS V13.00,2013-01-15 23:24:00,
2013-01-15 15:29:00,37.3,32.9,30.71,ENE,64,0.0,0.0,84,0.00,,---,0.01,VWS V13.00,2013-01-15 23:29:00,
2013-01-15 15:34:00,37.2,32.8,30.71,ENE,64,0.0,0.0,84,0.00,,---,0.01,VWS V13.00,2013-01-15 23:34:00,
2013-01-15 15:39:00,37.0,32.9,30.71,ENE,64,0.0,0.0,85,0.00,,---,0.01,VWS V13.00,2013-01-15 23:39:00,
2013-01-15 15:44:00,36.8,32.7,30.71,ENE,64,0.0,0.0,85,0.00,,---,0.01,VWS V13.00,2013-01-15 23:44:00,
2013-01-15 15:49:00,36.6,32.5,30.71,ENE,58,0.0,0.0,85,0.00,,---,0.01,VWS V13.00,2013-01-15 23:49:00,
2013-01-15 15:54:00,36.3,32.2,30.71,ENE,64,0.0,0.0,85,0.00,,---,0.01,VWS V13.00,2013-01-15 23:54:00,
2013-01-15 15:59:00,36.2,32.1,30.71,ENE,64,0.0,0.0,85,0.00,,---,0.01,VWS V13.00,2013-01-15 23:59:00,
2013-01-15 16:04:00,36.0,31.9,30.71,ENE,64,0.0,0.0,85,0.00,,---,0.01,VWS V13.00,2013-01-16 00:04:00,
2013-01-15 16:09:00,35.8,32.0,30.71,ENE,64,0.0,0.0,86,0.00,,---,0.01,VWS V13.00,2013-01-16 00:09:00,
2013-01-15 16:14:00,35.5,31.7,30.71,ENE,64,0.0,0.0,86,0.00,,---,0.01,VWS V13.00,2013-01-16 00:14:00,
2013-01-15 16:19:00,35.3,31.8,30.71,ENE,64,0.0,0.0,87,0.00,,---,0.01,VWS V13.00,2013-01-16 00:19:00,
2013-01-15 16:24:00,35.0,31.5,30.71,ENE,64,0.0,0.0,87,0.00,,---,0.01,VWS V13.00,2013-01-16 00:24:00,
2013-01-15 16:29:00,34.7,31.5,30.71,ENE,64,0.0,1.0,88,0.00,,---,0.01,VWS V13.00,2013-01-16 00:29:00,
2013-01-15 16:34:00,34.4,31.2,30.71,ENE,64,0.0,1.0,88,0.00,,---,0.01,VWS V13.00,2013-01-16 00:34:00,
2013-01-15 16:39:00,34.3,31.1,30.70,ENE,64,0.0,0.0,88,0.00,,---,0.01,VWS V13.00,2013-01-16 00:39:00,
2013-01-15 16:44:00,34.0,30.8,30.70,ENE,64,0.0,0.0,88,0.00,,---,0.01,VWS V13.00,2013-01-16 00:44:00,
2013-01-15 16:49:00,33.7,30.8,30.70,ENE,64,0.0,0.0,89,0.00,,---,0.01,VWS V13.00,2013-01-16 00:49:00,
2013-01-15 16:54:00,33.4,30.5,30.71,ENE,64,0.0,0.0,89,0.00,,---,0.01,VWS V13.00,2013-01-16 00:54:00,
2013-01-15 16:59:00,33.2,30.3,30.71,ENE,64,0.0,0.0,89,0.00,,---,0.01,VWS V13.00,2013-01-16 00:59:00,
2013-01-15 17:04:00,32.9,30.0,30.71,ENE,64,0.0,0.0,89,0.00,,---,0.01,VWS V13.00,2013-01-16 01:04:00,
2013-01-15 17:09:00,32.7,29.8,30.70,ENE,64,0.0,0.0,89,0.00,,---,0.01,VWS V13.00,2013-01-16 01:09:00,
2013-01-15 17:14:00,32.5,29.9,30.70,ENE,64,0.0,0.0,90,0.00,,---,0.01,VWS V13.00,2013-01-16 01:14:00,
2013-01-15 17:19:00,32.2,29.6,30.70,ENE,64,0.0,0.0,90,0.00,,---,0.01,VWS V13.00,2013-01-16 01:19:00,
2013-01-15 17:24:00,32.1,29.5,30.70,ENE,64,0.0,0.0,90,0.00,,---,0.01,VWS V13.00,2013-01-16 01:24:00,
2013-01-15 17:29:00,31.9,29.3,30.70,ENE,64,0.0,0.0,90,0.00,,---,0.01,VWS V13.00,2013-01-16 01:29:00,
2013-01-15 17:34:00,31.6,29.0,30.70,ENE,64,0.0,0.0,90,0.00,,---,0.01,VWS V13.00,2013-01-16 01:34:00,
2013-01-15 17:39:00,31.5,28.9,30.70,ENE,64,0.0,0.0,90,0.00,,---,0.01,VWS V13.00,2013-01-16 01:39:00,
2013-01-15 17:44:00,31.3,29.0,30.70,ENE,64,0.0,1.0,91,0.00,,---,0.01,VWS V13.00,2013-01-16 01:44:00,
2013-01-15 17:49:00,31.2,28.9,30.70,ENE,64,0.0,1.0,91,0.00,,---,0.01,VWS V13.00,2013-01-16 01:49:00,
2013-01-15 17:54:00,31.0,28.7,30.70,ENE,64,0.0,1.0,91,0.00,,---,0.01,VWS V13.00,2013-01-16 01:54:00,
2013-01-15 17:59:00,30.9,28.6,30.70,ENE,64,0.0,1.0,91,0.00,,---,0.01,VWS V13.00,2013-01-16 01:59:00,
2013-01-15 18:04:00,30.9,28.6,30.70,ENE,64,0.0,1.0,91,0.00,,---,0.01,VWS V13.00,2013-01-16 02:04:00,
2013-01-15 18:09:00,30.7,28.7,30.70,ESE,107,0.0,2.0,92,0.00,,---,0.01,VWS V13.00,2013-01-16 02:09:00,
2013-01-15 18:14:00,30.7,28.7,30.70,ESE,107,0.0,2.0,92,0.00,,---,0.01,VWS V13.00,2013-01-16 02:14:00,
2013-01-15 18:19:00,30.7,28.7,30.70,ESE,107,0.0,2.0,92,0.00,,---,0.01,VWS V13.00,2013-01-16 02:19:00,
2013-01-15 18:24:00,30.6,28.6,30.70,ESE,107,0.0,2.0,92,0.00,,---,0.01,VWS V13.00,2013-01-16 02:24:00,
2013-01-15 18:29:00,30.6,28.6,30.70,ESE,107,0.0,2.0,92,0.00,,---,0.01,VWS V13.00,2013-01-16 02:29:00,
2013-01-15 18:34:00,30.4,28.4,30.70,ESE,107,0.0,2.0,92,0.00,,---,0.01,VWS V13.00,2013-01-16 02:34:00,
2013-01-15 18:39:00,30.4,28.4,30.70,ESE,107,0.0,1.0,92,0.00,,---,0.01,VWS V13.00,2013-01-16 02:39:00,
2013-01-15 18:44:00,30.3,28.3,30.70,ESE,107,0.0,1.0,92,0.00,,---,0.01,VWS V13.00,2013-01-16 02:44:00,
2013-01-15 18:49:00,30.1,28.1,30.70,ESE,107,0.0,1.0,92,0.00,,---,0.01,VWS V13.00,2013-01-16 02:49:00,
2013-01-15 18:54:00,30.1,28.1,30.70,ESE,107,0.0,1.0,92,0.00,,---,0.01,VWS V13.00,2013-01-16 02:54:00,
2013-01-15 18:59:00,30.0,28.0,30.70,ESE,107,0.0,1.0,92,0.00,,---,0.01,VWS V13.00,2013-01-16 02:59:00,
2013-01-15 19:04:00,30.0,28.0,30.70,ESE,107,0.0,1.0,92,0.00,,---,0.01,VWS V13.00,2013-01-16 03:04:00,
2013-01-15 19:09:00,30.0,28.0,30.71,ESE,107,0.0,0.0,92,0.00,,---,0.01,VWS V13.00,2013-01-16 03:09:00,
2013-01-15 19:14:00,29.8,27.8,30.71,ESE,107,0.0,0.0,92,0.00,,---,0.01,VWS V13.00,2013-01-16 03:14:00,
2013-01-15 19:19:00,29.8,28.0,30.71,ESE,107,0.0,2.0,93,0.00,,---,0.01,VWS V13.00,2013-01-16 03:19:00,
2013-01-15 19:24:00,29.7,27.9,30.71,ESE,107,0.0,2.0,93,0.00,,---,0.01,VWS V13.00,2013-01-16 03:24:00,
2013-01-15 19:29:00,29.7,27.9,30.71,ESE,107,0.0,2.0,93,0.00,,---,0.01,VWS V13.00,2013-01-16 03:29:00,
2013-01-15 19:34:00,29.7,27.9,30.71,ESE,107,0.0,2.0,93,0.00,,---,0.01,VWS V13.00,2013-01-16 03:34:00,
2013-01-15 19:39:00,29.7,27.9,30.71,ESE,107,0.0,0.0,93,0.00,,---,0.01,VWS V13.00,2013-01-16 03:39:00,
2013-01-15 19:44:00,29.5,27.7,30.71,ESE,107,0.0,0.0,93,0.00,,---,0.01,VWS V13.00,2013-01-16 03:44:00,
2013-01-15 19:49:00,29.5,27.7,30.71,ESE,107,0.0,0.0,93,0.00,,---,0.01,VWS V13.00,2013-01-16 03:49:00,
2013-01-15 19:54:00,29.5,27.7,30.70,ESE,107,1.0,1.0,93,0.00,,---,0.01,VWS V13.00,2013-01-16 03:54:00,
2013-01-15 19:59:00,29.4,27.6,30.70,East,100,0.0,1.0,93,0.00,,---,0.01,VWS V13.00,2013-01-16 03:59:00,
2013-01-15 20:04:00,29.4,27.6,30.70,ESE,107,0.0,1.0,93,0.00,,---,0.01,VWS V13.00,2013-01-16 04:04:00,
2013-01-15 20:09:00,29.4,27.6,30.71,ESE,107,0.0,0.0,93,0.00,,---,0.01,VWS V13.00,2013-01-16 04:09:00,
2013-01-15 20:14:00,29.3,27.5,30.71,ESE,107,0.0,0.0,93,0.00,,---,0.01,VWS V13.00,2013-01-16 04:14:00,
2013-01-15 20:19:00,29.3,27.5,30.71,ESE,107,0.0,0.0,93,0.00,,---,0.01,VWS V13.00,2013-01-16 04:19:00,
2013-01-15 20:24:00,29.1,27.3,30.71,ESE,107,0.0,0.0,93,0.00,,---,0.01,VWS V13.00,2013-01-16 04:24:00,
2013-01-15 20:29:00,29.1,27.3,30.71,ESE,107,0.0,0.0,93,0.00,,---,0.01,VWS V13.00,2013-01-16 04:29:00,
2013-01-15 20:34:00,29.0,27.2,30.71,ESE,107,0.0,0.0,93,0.00,,---,0.01,VWS V13.00,2013-01-16 04:34:00,
2013-01-15 20:39:00,29.0,27.2,30.71,ESE,107,0.0,0.0,93,0.00,,---,0.01,VWS V13.00,2013-01-16 04:39:00,
2013-01-15 20:44:00,28.8,27.0,30.71,ESE,107,0.0,1.0,93,0.00,,---,0.01,VWS V13.00,2013-01-16 04:44:00,
2013-01-15 20:49:00,28.8,27.0,30.71,ESE,107,0.0,1.0,93,0.00,,---,0.01,VWS V13.00,2013-01-16 04:49:00,
2013-01-15 20:54:00,28.8,27.0,30.72,ESE,107,0.0,1.0,93,0.00,,---,0.01,VWS V13.00,2013-01-16 04:54:00,
2013-01-15 20:59:00,28.7,26.9,30.72,ESE,107,0.0,1.0,93,0.00,,---,0.01,VWS V13.00,2013-01-16 04:59:00,
2013-01-15 21:00:00,28.7,26.9,30.72,ESE,107,0.0,1.0,93,0.00,,---,0.01,VWS V13.00,2013-01-16 05:00:00,
2013-01-15 21:01:00,28.7,26.9,30.72,ESE,107,0.0,1.0,93,0.00,,---,0.01,VWS V13.00,2013-01-16 05:01:00,
2013-01-15 21:06:00,28.7,26.9,30.71,ESE,107,0.0,1.0,93,0.00,,---,0.01,VWS V13.00,2013-01-16 05:06:00,
2013-01-15 21:11:00,28.5,26.7,30.71,ESE,107,1.0,1.0,93,0.00,,---,0.01,VWS V13.00,2013-01-16 05:11:00,
2013-01-15 21:16:00,28.5,26.7,30.71,ESE,107,0.0,1.0,93,0.00,,---,0.01,VWS V13.00,2013-01-16 05:16:00,
2013-01-15 21:21:00,28.5,27.0,30.71,ESE,107,0.0,1.0,94,0.00,,---,0.01,VWS V13.00,2013-01-16 05:21:00,
2013-01-15 21:26:00,28.4,26.9,30.71,ESE,107,0.0,1.0,94,0.00,,---,0.01,VWS V13.00,2013-01-16 05:26:00,
2013-01-15 21:31:00,28.4,26.9,30.71,ESE,107,0.0,1.0,94,0.00,,---,0.01,VWS V13.00,2013-01-16 05:31:00,
2013-01-15 21:36:00,28.4,26.9,30.71,ESE,107,0.0,1.0,94,0.00,,---,0.01,VWS V13.00,2013-01-16 05:36:00,
2013-01-15 21:41:00,28.4,26.9,30.71,ESE,107,0.0,0.0,94,0.00,,---,0.01,VWS V13.00,2013-01-16 05:41:00,
2013-01-15 21:46:00,28.4,26.9,30.71,ESE,107,0.0,0.0,94,0.00,,---,0.01,VWS V13.00,2013-01-16 05:46:00,
2013-01-15 21:51:00,28.2,26.7,30.71,ESE,107,0.0,0.0,94,0.00,,---,0.01,VWS V13.00,2013-01-16 05:51:00,
2013-01-15 21:56:00,28.2,26.7,30.71,ESE,107,0.0,0.0,94,0.00,,---,0.01,VWS V13.00,2013-01-16 05:56:00,
2013-01-15 22:01:00,28.2,26.7,30.71,ESE,107,0.0,0.0,94,0.00,,---,0.01,VWS V13.00,2013-01-16 06:01:00,
2013-01-15 22:06:00,28.2,26.7,30.70,ESE,107,0.0,0.0,94,0.00,,---,0.01,VWS V13.00,2013-01-16 06:06:00,
2013-01-15 22:11:00,28.2,26.7,30.70,ESE,107,0.0,0.0,94,0.00,,---,0.01,VWS V13.00,2013-01-16 06:11:00,
2013-01-15 22:16:00,28.4,26.9,30.70,ESE,107,0.0,0.0,94,0.00,,---,0.01,VWS V13.00,2013-01-16 06:16:00,
2013-01-15 22:21:00,28.2,26.7,30.70,East,100,0.0,0.0,94,0.00,,---,0.01,VWS V13.00,2013-01-16 06:21:00,
2013-01-15 22:26:00,28.2,26.7,30.70,ESE,107,0.0,0.0,94,0.00,,---,0.01,VWS V13.00,2013-01-16 06:26:00,
2013-01-15 22:31:00,28.2,26.7,30.70,ESE,107,0.0,0.0,94,0.00,,---,0.01,VWS V13.00,2013-01-16 06:31:00,
2013-01-15 22:36:00,28.1,26.6,30.70,ESE,107,0.0,0.0,94,0.00,,---,0.01,VWS V13.00,2013-01-16 06:36:00,
2013-01-15 22:41:00,27.9,26.4,30.70,ESE,107,0.0,2.0,94,0.00,,---,0.01,VWS V13.00,2013-01-16 06:41:00,
2013-01-15 22:46:00,27.9,26.4,30.70,ESE,107,0.0,2.0,94,0.00,,---,0.01,VWS V13.00,2013-01-16 06:46:00,
2013-01-15 22:51:00,27.8,26.3,30.69,ESE,107,0.0,2.0,94,0.00,,---,0.01,VWS V13.00,2013-01-16 06:51:00,
2013-01-15 22:56:00,27.8,26.3,30.69,ESE,107,0.0,2.0,94,0.00,,---,0.01,VWS V13.00,2013-01-16 06:56:00,
2013-01-15 23:01:00,27.6,26.1,30.69,ESE,107,0.0,2.0,94,0.00,,---,0.01,VWS V13.00,2013-01-16 07:01:00,
2013-01-15 23:06:00,27.6,26.1,30.69,ESE,107,0.0,2.0,94,0.00,,---,0.01,VWS V13.00,2013-01-16 07:06:00,
2013-01-15 23:11:00,27.6,26.1,30.69,ESE,107,0.0,0.0,94,0.00,,---,0.01,VWS V13.00,2013-01-16 07:11:00,
2013-01-15 23:16:00,27.8,26.3,30.69,ESE,107,0.0,0.0,94,0.00,,---,0.01,VWS V13.00,2013-01-16 07:16:00,
2013-01-15 23:21:00,27.8,26.3,30.69,ESE,107,0.0,0.0,94,0.00,,---,0.01,VWS V13.00,2013-01-16 07:21:00,
2013-01-15 23:26:00,27.8,26.3,30.69,ESE,107,0.0,0.0,94,0.00,,---,0.01,VWS V13.00,2013-01-16 07:26:00,
2013-01-15 23:31:00,27.8,26.3,30.69,ESE,107,0.0,0.0,94,0.00,,---,0.01,VWS V13.00,2013-01-16 07:31:00,
2013-01-15 23:36:00,27.6,26.1,30.69,ESE,107,0.0,0.0,94,0.00,,---,0.01,VWS V13.00,2013-01-16 07:36:00,
2013-01-15 23:41:00,27.6,26.1,30.69,ESE,107,0.0,0.0,94,0.00,,---,0.01,VWS V13.00,2013-01-16 07:41:00,
2013-01-15 23:46:00,27.6,26.1,30.69,ESE,107,0.0,0.0,94,0.00,,---,0.01,VWS V13.00,2013-01-16 07:46:00,
2013-01-15 23:51:00,27.6,26.1,30.69,ESE,107,0.0,0.0,94,0.00,,---,0.01,VWS V13.00,2013-01-16 07:51:00,
2013-01-15 23:56:00,27.5,26.0,30.69,ESE,107,0.0,0.0,94,0.00,,---,0.01,VWS V13.00,2013-01-16 07:56:00,